Seaven Joy — SVCQ8 — position and weather

sailwx.info

Track history (hours):
 
Tides and Currents Weather Stations Pressure Air Temp Water Temp Dewpoint Dewpoint Depression Visibility Wind Speed Wind Dir Waves Ship Positions

Seaven Joy

Last reported at 2018-Apr-22 02:26 UTC. Time now 2018-Apr-22 14:44 UTC.
Position N 40°04' E 025°37'.

Length 100 m; draft 5.6 m.

Type: Ship. MMSI: 241523000.

Date/timePositionNaut miles runAvg speedWind from/ knotsBaromVisibWave heightAir tempDewpointWater temp
2018-Apr-22 02:26N 40°04' E 025°37'25 0.6
2018-Apr-20 06:10N 40°26' E 025°22'2 9.9
2018-Apr-20 05:56N 40°25' E 025°20'410.1
2018-Apr-20 05:30N 40°21' E 025°17'610.6
2018-Apr-20 04:59N 40°16' E 025°13'610.8
2018-Apr-20 04:25N 40°11' E 025°09'511.1
2018-Apr-20 03:58N 40°07' E 025°05'511.1
2018-Apr-20 03:30N 40°03' E 025°01'156 8.5
2018-Apr-19 09:04N 37°38' E 023°47'2 9.0
2018-Apr-19 08:53N 37°39' E 023°45'4 8.9
2018-Apr-19 08:29N 37°41' E 023°41'5 9.8
2018-Apr-19 08:00N 37°46' E 023°39'5 9.4
2018-Apr-19 07:30N 37°50' E 023°36'5 9.9
2018-Apr-19 07:00N 37°50' E 023°30'5 9.9
2018-Apr-19 06:30N 37°52' E 023°24'4 9.0
2018-Apr-19 06:00N 37°57' E 023°23'3 6.1
2018-Apr-19 05:30N 37°59' E 023°25'5 9.5
2018-Apr-19 05:00N 38°01' E 023°31'1 1.8
2018-Apr-19 04:29N 38°01' E 023°32'0 0.1
2018-Apr-19 04:00N 38°01' E 023°32'2 4.2
2018-Apr-19 03:31N 38°01' E 023°35'1 0.0
2018-Apr-17 06:15N 38°02' E 023°36'0 0.3
2018-Apr-17 06:00N 38°02' E 023°36'2 5.0
2018-Apr-17 05:31N 38°01' E 023°33'1 1.0
2018-Apr-17 04:59N 38°01' E 023°32'0 0.0
2018-Apr-17 04:29N 38°01' E 023°32'0 0.0
2018-Apr-17 03:53N 38°01' E 023°32'0 0.1
2018-Apr-17 03:29N 38°01' E 023°32'0 0.1
2018-Apr-17 02:59N 38°01' E 023°32'0 0.0
2018-Apr-17 02:29N 38°01' E 023°32'0 0.1
2018-Apr-17 01:59N 38°01' E 023°32'0 0.1
2018-Apr-17 01:29N 38°01' E 023°32'0 0.0
2018-Apr-17 00:59N 38°01' E 023°32'0 0.0
2018-Apr-17 00:29N 38°01' E 023°32'0 0.0
2018-Apr-16 23:59N 38°01' E 023°32'0 0.0
2018-Apr-16 23:29N 38°01' E 023°32'0 0.0
2018-Apr-16 22:59N 38°01' E 023°32'0 0.0
2018-Apr-16 22:29N 38°01' E 023°32'0 0.0
2018-Apr-16 21:59N 38°01' E 023°32'0 0.0
2018-Apr-16 21:29N 38°01' E 023°32'0 0.0
2018-Apr-16 20:59N 38°01' E 023°32'0 0.0
2018-Apr-16 20:26N 38°01' E 023°32'0 0.0
2018-Apr-16 19:59N 38°01' E 023°32'0 0.0
2018-Apr-16 19:29N 38°01' E 023°32'0 0.0
2018-Apr-16 18:59N 38°01' E 023°32'0 0.0
2018-Apr-16 18:29N 38°01' E 023°32'0 0.0
2018-Apr-16 17:59N 38°01' E 023°32'0 0.2
2018-Apr-16 17:23N 38°01' E 023°32'0 0.2
2018-Apr-16 16:59N 38°01' E 023°32'0 0.0
2018-Apr-16 16:29N 38°01' E 023°32'0 0.1
2018-Apr-16 15:59N 38°01' E 023°32'0 0.0
2018-Apr-16 15:29N 38°01' E 023°32'0 0.0
2018-Apr-16 14:59N 38°01' E 023°32'0 0.0
2018-Apr-16 14:29N 38°01' E 023°32'0 0.0
2018-Apr-16 13:59N 38°01' E 023°32'0 0.0
2018-Apr-16 13:29N 38°01' E 023°32'0 0.0
2018-Apr-16 12:59N 38°01' E 023°32'0 0.0
2018-Apr-16 12:29N 38°01' E 023°32'0 0.0
2018-Apr-16 11:59N 38°01' E 023°32'0 0.0
2018-Apr-16 11:29N 38°01' E 023°32'0 0.3
2018-Apr-16 10:56N 38°01' E 023°32'0 0.2
2018-Apr-16 10:29N 38°01' E 023°32'0 0.1
2018-Apr-16 09:59N 38°01' E 023°32'0 0.1
2018-Apr-16 09:29N 38°01' E 023°32'0 0.0
2018-Apr-16 08:59N 38°01' E 023°32'0 0.0
2018-Apr-16 08:29N 38°01' E 023°32'0 0.1
2018-Apr-16 07:59N 38°01' E 023°32'0 0.1
2018-Apr-16 07:29N 38°01' E 023°32'0 0.1
2018-Apr-16 06:59N 38°01' E 023°32'0 0.0
2018-Apr-16 06:29N 38°01' E 023°32'0 0.1
2018-Apr-16 05:59N 38°01' E 023°32'0 0.0
2018-Apr-16 05:29N 38°01' E 023°32'0 0.0
2018-Apr-16 04:59N 38°01' E 023°32'0 0.1
2018-Apr-16 04:29N 38°01' E 023°32'0 0.0
2018-Apr-16 03:59N 38°01' E 023°32'0 0.2
2018-Apr-16 03:29N 38°01' E 023°32'0 0.0
2018-Apr-16 02:59N 38°01' E 023°32'0 0.0
2018-Apr-16 02:29N 38°01' E 023°32'0 0.0
2018-Apr-16 01:59N 38°01' E 023°32'0 0.0
2018-Apr-16 01:29N 38°01' E 023°32'0 0.0
2018-Apr-16 00:59N 38°01' E 023°32'0 0.1
2018-Apr-16 00:29N 38°01' E 023°32'0 0.0
2018-Apr-15 23:59N 38°01' E 023°32'0 0.0
2018-Apr-15 23:29N 38°01' E 023°32'0 0.1
2018-Apr-15 22:59N 38°01' E 023°32'0 0.0
2018-Apr-15 22:26N 38°01' E 023°32'0 0.0
2018-Apr-15 21:59N 38°01' E 023°32'0 0.0
2018-Apr-15 21:29N 38°01' E 023°32'0 0.1
2018-Apr-15 20:59N 38°01' E 023°32'0 0.0
2018-Apr-15 20:29N 38°01' E 023°32'0 0.1
2018-Apr-15 19:59N 38°01' E 023°32'0 0.0
2018-Apr-15 19:29N 38°01' E 023°32'0 0.1
2018-Apr-15 18:59N 38°01' E 023°32'0 0.1
2018-Apr-15 18:26N 38°01' E 023°32'0 0.1
2018-Apr-15 17:59N 38°01' E 023°32'0 0.1
2018-Apr-15 17:26N 38°01' E 023°32'0 0.1
2018-Apr-15 16:59N 38°01' E 023°32'0 0.0
2018-Apr-15 16:26N 38°01' E 023°32'0 0.0
2018-Apr-15 15:59N 38°01' E 023°32'0 0.2
2018-Apr-15 15:29N 38°01' E 023°32'0 0.1
2018-Apr-15 14:59N 38°01' E 023°32'0 0.1
2018-Apr-15 14:29N 38°01' E 023°32'0 0.0
2018-Apr-15 13:59N 38°01' E 023°32'0 0.0
2018-Apr-15 13:29N 38°01' E 023°32'0 0.0
2018-Apr-15 12:59N 38°01' E 023°32'0 0.1
2018-Apr-15 12:29N 38°01' E 023°32'0 1.0
2018-Apr-15 12:00N 38°01' E 023°32'4 7.5
2018-Apr-15 11:30N 37°57' E 023°34'2 0.0
2018-Apr-13 14:43N 37°57' E 023°36'0 0.0
2018-Apr-13 14:28N 37°57' E 023°36'0 0.0
2018-Apr-13 13:52N 37°57' E 023°36'0 0.0
2018-Apr-13 13:22N 37°57' E 023°36'0 0.0
2018-Apr-13 12:55N 37°57' E 023°36'0 0.0
2018-Apr-13 12:28N 37°57' E 023°36'0 0.0
2018-Apr-13 11:58N 37°57' E 023°36'0 0.0
2018-Apr-13 11:22N 37°57' E 023°36'0 0.0
2018-Apr-13 10:58N 37°57' E 023°36'0 0.0
2018-Apr-13 10:28N 37°57' E 023°36'0 0.0
2018-Apr-13 09:58N 37°57' E 023°36'0 0.0
2018-Apr-13 09:28N 37°57' E 023°36'0 0.0
2018-Apr-13 08:58N 37°57' E 023°36'0 0.0
2018-Apr-13 08:28N 37°57' E 023°36'0 0.0
2018-Apr-13 07:58N 37°57' E 023°36'0 0.0
2018-Apr-13 07:28N 37°57' E 023°36'0 0.0
2018-Apr-13 06:58N 37°57' E 023°36'0 0.0
2018-Apr-13 06:22N 37°57' E 023°36'0 0.0
2018-Apr-13 05:55N 37°57' E 023°36'0 0.0
2018-Apr-13 05:28N 37°57' E 023°36'0 0.0
2018-Apr-13 04:58N 37°57' E 023°36'0 0.0
2018-Apr-13 04:28N 37°57' E 023°36'0 0.0
2018-Apr-13 03:55N 37°57' E 023°36'0 0.0
2018-Apr-13 03:28N 37°57' E 023°36'0 0.0
2018-Apr-13 02:58N 37°57' E 023°36'0 0.0
2018-Apr-13 02:28N 37°57' E 023°36'0 0.0
2018-Apr-13 01:58N 37°57' E 023°36'0 0.0
2018-Apr-13 01:25N 37°57' E 023°36'0 0.0
2018-Apr-13 00:58N 37°57' E 023°36'0 0.0
2018-Apr-13 00:28N 37°57' E 023°36'0 0.0
2018-Apr-12 23:55N 37°57' E 023°36'0 0.0
2018-Apr-12 23:25N 37°57' E 023°36'0 0.0
2018-Apr-12 22:58N 37°57' E 023°36'0 0.0
2018-Apr-12 22:28N 37°57' E 023°36'0 0.0
2018-Apr-12 21:58N 37°57' E 023°36'0 0.0
2018-Apr-12 21:28N 37°57' E 023°36'0 0.0
2018-Apr-12 20:58N 37°57' E 023°36'0 0.0
2018-Apr-12 20:28N 37°57' E 023°36'0 0.0
2018-Apr-12 19:58N 37°57' E 023°36'0 0.0
2018-Apr-12 19:28N 37°57' E 023°36'0 0.0
2018-Apr-12 18:58N 37°57' E 023°36'0 0.0
2018-Apr-12 18:28N 37°57' E 023°36'0 0.0
2018-Apr-12 17:55N 37°57' E 023°36'0 0.0
2018-Apr-12 17:28N 37°57' E 023°36'0 0.0
2018-Apr-12 16:58N 37°57' E 023°36'0 0.0
2018-Apr-12 16:28N 37°57' E 023°36'0 0.0
2018-Apr-12 15:58N 37°57' E 023°36'0 0.0
2018-Apr-12 15:15N 37°57' E 023°36'0 0.0
2018-Apr-12 15:00N 37°57' E 023°36'0 0.0
2018-Apr-12 14:30N 37°57' E 023°36'0 0.0
2018-Apr-12 14:00N 37°57' E 023°36'0 0.0
2018-Apr-12 13:30N 37°57' E 023°36'0 0.0
2018-Apr-12 13:00N 37°57' E 023°36'0 0.0
2018-Apr-12 12:21N 37°57' E 023°36'0 0.0
2018-Apr-12 11:45N 37°57' E 023°36'0 0.0
2018-Apr-12 11:27N 37°57' E 023°36'0 0.0
2018-Apr-12 11:00N 37°57' E 023°36'0 0.0
2018-Apr-12 10:30N 37°57' E 023°36'0 0.0
2018-Apr-12 09:45N 37°57' E 023°36'0 0.0
2018-Apr-12 09:30N 37°57' E 023°36'0 0.0
2018-Apr-12 09:00N 37°57' E 023°36'0 0.0
2018-Apr-12 08:30N 37°57' E 023°36'0 0.0
2018-Apr-12 07:54N 37°57' E 023°36'0 0.0
2018-Apr-12 07:24N 37°57' E 023°36'0 0.0
2018-Apr-12 06:54N 37°57' E 023°36'  
Track history (hours):
 
Tides and Currents Weather Stations Pressure Air Temp Water Temp Dewpoint Dewpoint Depression Visibility Wind Speed Wind Dir Waves Ship Positions

Seaven Joy

Last reported at 2018-Apr-22 02:26 UTC. Time now 2018-Apr-22 14:44 UTC.
Position N 40°04' E 025°37'.

Length 100 m; draft 5.6 m.

Type: Ship. MMSI: 241523000.

Date/timePositionNaut miles runAvg speedWind from/ knotsBaromVisibWave heightAir tempDewpointWater temp
2018-Apr-22 02:26N 40°04' E 025°37'25 0.6
2018-Apr-20 06:10N 40°26' E 025°22'2 9.9
2018-Apr-20 05:56N 40°25' E 025°20'410.1
2018-Apr-20 05:30N 40°21' E 025°17'610.6
2018-Apr-20 04:59N 40°16' E 025°13'610.8
2018-Apr-20 04:25N 40°11' E 025°09'511.1
2018-Apr-20 03:58N 40°07' E 025°05'511.1
2018-Apr-20 03:30N 40°03' E 025°01'156 8.5
2018-Apr-19 09:04N 37°38' E 023°47'2 9.0
2018-Apr-19 08:53N 37°39' E 023°45'4 8.9
2018-Apr-19 08:29N 37°41' E 023°41'5 9.8
2018-Apr-19 08:00N 37°46' E 023°39'5 9.4
2018-Apr-19 07:30N 37°50' E 023°36'5 9.9
2018-Apr-19 07:00N 37°50' E 023°30'5 9.9
2018-Apr-19 06:30N 37°52' E 023°24'4 9.0
2018-Apr-19 06:00N 37°57' E 023°23'3 6.1
2018-Apr-19 05:30N 37°59' E 023°25'5 9.5
2018-Apr-19 05:00N 38°01' E 023°31'1 1.8
2018-Apr-19 04:29N 38°01' E 023°32'0 0.1
2018-Apr-19 04:00N 38°01' E 023°32'2 4.2
2018-Apr-19 03:31N 38°01' E 023°35'1 0.0
2018-Apr-17 06:15N 38°02' E 023°36'0 0.3
2018-Apr-17 06:00N 38°02' E 023°36'2 5.0
2018-Apr-17 05:31N 38°01' E 023°33'1 1.0
2018-Apr-17 04:59N 38°01' E 023°32'0 0.0
2018-Apr-17 04:29N 38°01' E 023°32'0 0.0
2018-Apr-17 03:53N 38°01' E 023°32'0 0.1
2018-Apr-17 03:29N 38°01' E 023°32'0 0.1
2018-Apr-17 02:59N 38°01' E 023°32'0 0.0
2018-Apr-17 02:29N 38°01' E 023°32'0 0.1
2018-Apr-17 01:59N 38°01' E 023°32'0 0.1
2018-Apr-17 01:29N 38°01' E 023°32'0 0.0
2018-Apr-17 00:59N 38°01' E 023°32'0 0.0
2018-Apr-17 00:29N 38°01' E 023°32'0 0.0
2018-Apr-16 23:59N 38°01' E 023°32'0 0.0
2018-Apr-16 23:29N 38°01' E 023°32'0 0.0
2018-Apr-16 22:59N 38°01' E 023°32'0 0.0
2018-Apr-16 22:29N 38°01' E 023°32'0 0.0
2018-Apr-16 21:59N 38°01' E 023°32'0 0.0
2018-Apr-16 21:29N 38°01' E 023°32'0 0.0
2018-Apr-16 20:59N 38°01' E 023°32'0 0.0
2018-Apr-16 20:26N 38°01' E 023°32'0 0.0
2018-Apr-16 19:59N 38°01' E 023°32'0 0.0
2018-Apr-16 19:29N 38°01' E 023°32'0 0.0
2018-Apr-16 18:59N 38°01' E 023°32'0 0.0
2018-Apr-16 18:29N 38°01' E 023°32'0 0.0
2018-Apr-16 17:59N 38°01' E 023°32'0 0.2
2018-Apr-16 17:23N 38°01' E 023°32'0 0.2
2018-Apr-16 16:59N 38°01' E 023°32'0 0.0
2018-Apr-16 16:29N 38°01' E 023°32'0 0.1
2018-Apr-16 15:59N 38°01' E 023°32'0 0.0
2018-Apr-16 15:29N 38°01' E 023°32'0 0.0
2018-Apr-16 14:59N 38°01' E 023°32'0 0.0
2018-Apr-16 14:29N 38°01' E 023°32'0 0.0
2018-Apr-16 13:59N 38°01' E 023°32'0 0.0
2018-Apr-16 13:29N 38°01' E 023°32'0 0.0
2018-Apr-16 12:59N 38°01' E 023°32'0 0.0
2018-Apr-16 12:29N 38°01' E 023°32'0 0.0
2018-Apr-16 11:59N 38°01' E 023°32'0 0.0
2018-Apr-16 11:29N 38°01' E 023°32'0 0.3
2018-Apr-16 10:56N 38°01' E 023°32'0 0.2
2018-Apr-16 10:29N 38°01' E 023°32'0 0.1
2018-Apr-16 09:59N 38°01' E 023°32'0 0.1
2018-Apr-16 09:29N 38°01' E 023°32'0 0.0
2018-Apr-16 08:59N 38°01' E 023°32'0 0.0
2018-Apr-16 08:29N 38°01' E 023°32'0 0.1
2018-Apr-16 07:59N 38°01' E 023°32'0 0.1
2018-Apr-16 07:29N 38°01' E 023°32'0 0.1
2018-Apr-16 06:59N 38°01' E 023°32'0 0.0
2018-Apr-16 06:29N 38°01' E 023°32'0 0.1
2018-Apr-16 05:59N 38°01' E 023°32'0 0.0
2018-Apr-16 05:29N 38°01' E 023°32'0 0.0
2018-Apr-16 04:59N 38°01' E 023°32'0 0.1
2018-Apr-16 04:29N 38°01' E 023°32'0 0.0
2018-Apr-16 03:59N 38°01' E 023°32'0 0.2
2018-Apr-16 03:29N 38°01' E 023°32'0 0.0
2018-Apr-16 02:59N 38°01' E 023°32'0 0.0
2018-Apr-16 02:29N 38°01' E 023°32'0 0.0
2018-Apr-16 01:59N 38°01' E 023°32'0 0.0
2018-Apr-16 01:29N 38°01' E 023°32'0 0.0
2018-Apr-16 00:59N 38°01' E 023°32'0 0.1
2018-Apr-16 00:29N 38°01' E 023°32'0 0.0
2018-Apr-15 23:59N 38°01' E 023°32'0 0.0
2018-Apr-15 23:29N 38°01' E 023°32'0 0.1
2018-Apr-15 22:59N 38°01' E 023°32'0 0.0
2018-Apr-15 22:26N 38°01' E 023°32'0 0.0
2018-Apr-15 21:59N 38°01' E 023°32'0 0.0
2018-Apr-15 21:29N 38°01' E 023°32'0 0.1
2018-Apr-15 20:59N 38°01' E 023°32'0 0.0
2018-Apr-15 20:29N 38°01' E 023°32'0 0.1
2018-Apr-15 19:59N 38°01' E 023°32'0 0.0
2018-Apr-15 19:29N 38°01' E 023°32'0 0.1
2018-Apr-15 18:59N 38°01' E 023°32'0 0.1
2018-Apr-15 18:26N 38°01' E 023°32'0 0.1
2018-Apr-15 17:59N 38°01' E 023°32'0 0.1
2018-Apr-15 17:26N 38°01' E 023°32'0 0.1
2018-Apr-15 16:59N 38°01' E 023°32'0 0.0
2018-Apr-15 16:26N 38°01' E 023°32'0 0.0
2018-Apr-15 15:59N 38°01' E 023°32'0 0.2
2018-Apr-15 15:29N 38°01' E 023°32'0 0.1
2018-Apr-15 14:59N 38°01' E 023°32'0 0.1
2018-Apr-15 14:29N 38°01' E 023°32'0 0.0
2018-Apr-15 13:59N 38°01' E 023°32'0 0.0
2018-Apr-15 13:29N 38°01' E 023°32'0 0.0
2018-Apr-15 12:59N 38°01' E 023°32'0 0.1
2018-Apr-15 12:29N 38°01' E 023°32'0 1.0
2018-Apr-15 12:00N 38°01' E 023°32'4 7.5
2018-Apr-15 11:30N 37°57' E 023°34'2 0.0
2018-Apr-13 14:43N 37°57' E 023°36'0 0.0
2018-Apr-13 14:28N 37°57' E 023°36'0 0.0
2018-Apr-13 13:52N 37°57' E 023°36'0 0.0
2018-Apr-13 13:22N 37°57' E 023°36'0 0.0
2018-Apr-13 12:55N 37°57' E 023°36'0 0.0
2018-Apr-13 12:28N 37°57' E 023°36'0 0.0
2018-Apr-13 11:58N 37°57' E 023°36'0 0.0
2018-Apr-13 11:22N 37°57' E 023°36'0 0.0
2018-Apr-13 10:58N 37°57' E 023°36'0 0.0
2018-Apr-13 10:28N 37°57' E 023°36'0 0.0
2018-Apr-13 09:58N 37°57' E 023°36'0 0.0
2018-Apr-13 09:28N 37°57' E 023°36'0 0.0
2018-Apr-13 08:58N 37°57' E 023°36'0 0.0
2018-Apr-13 08:28N 37°57' E 023°36'0 0.0
2018-Apr-13 07:58N 37°57' E 023°36'0 0.0
2018-Apr-13 07:28N 37°57' E 023°36'0 0.0
2018-Apr-13 06:58N 37°57' E 023°36'0 0.0
2018-Apr-13 06:22N 37°57' E 023°36'0 0.0
2018-Apr-13 05:55N 37°57' E 023°36'0 0.0
2018-Apr-13 05:28N 37°57' E 023°36'0 0.0
2018-Apr-13 04:58N 37°57' E 023°36'0 0.0
2018-Apr-13 04:28N 37°57' E 023°36'0 0.0
2018-Apr-13 03:55N 37°57' E 023°36'0 0.0
2018-Apr-13 03:28N 37°57' E 023°36'0 0.0
2018-Apr-13 02:58N 37°57' E 023°36'0 0.0
2018-Apr-13 02:28N 37°57' E 023°36'0 0.0
2018-Apr-13 01:58N 37°57' E 023°36'0 0.0
2018-Apr-13 01:25N 37°57' E 023°36'0 0.0
2018-Apr-13 00:58N 37°57' E 023°36'0 0.0
2018-Apr-13 00:28N 37°57' E 023°36'0 0.0
2018-Apr-12 23:55N 37°57' E 023°36'0 0.0
2018-Apr-12 23:25N 37°57' E 023°36'0 0.0
2018-Apr-12 22:58N 37°57' E 023°36'0 0.0
2018-Apr-12 22:28N 37°57' E 023°36'0 0.0
2018-Apr-12 21:58N 37°57' E 023°36'0 0.0
2018-Apr-12 21:28N 37°57' E 023°36'0 0.0
2018-Apr-12 20:58N 37°57' E 023°36'0 0.0
2018-Apr-12 20:28N 37°57' E 023°36'0 0.0
2018-Apr-12 19:58N 37°57' E 023°36'0 0.0
2018-Apr-12 19:28N 37°57' E 023°36'0 0.0
2018-Apr-12 18:58N 37°57' E 023°36'0 0.0
2018-Apr-12 18:28N 37°57' E 023°36'0 0.0
2018-Apr-12 17:55N 37°57' E 023°36'0 0.0
2018-Apr-12 17:28N 37°57' E 023°36'0 0.0
2018-Apr-12 16:58N 37°57' E 023°36'0 0.0
2018-Apr-12 16:28N 37°57' E 023°36'0 0.0
2018-Apr-12 15:58N 37°57' E 023°36'0 0.0
2018-Apr-12 15:15N 37°57' E 023°36'0 0.0
2018-Apr-12 15:00N 37°57' E 023°36'0 0.0
2018-Apr-12 14:30N 37°57' E 023°36'0 0.0
2018-Apr-12 14:00N 37°57' E 023°36'0 0.0
2018-Apr-12 13:30N 37°57' E 023°36'0 0.0
2018-Apr-12 13:00N 37°57' E 023°36'0 0.0
2018-Apr-12 12:21N 37°57' E 023°36'0 0.0
2018-Apr-12 11:45N 37°57' E 023°36'0 0.0
2018-Apr-12 11:27N 37°57' E 023°36'0 0.0
2018-Apr-12 11:00N 37°57' E 023°36'0 0.0
2018-Apr-12 10:30N 37°57' E 023°36'0 0.0
2018-Apr-12 09:45N 37°57' E 023°36'0 0.0
2018-Apr-12 09:30N 37°57' E 023°36'0 0.0
2018-Apr-12 09:00N 37°57' E 023°36'0 0.0
2018-Apr-12 08:30N 37°57' E 023°36'0 0.0
2018-Apr-12 07:54N 37°57' E 023°36'0 0.0
2018-Apr-12 07:24N 37°57' E 023°36'0 0.0
2018-Apr-12 06:54N 37°57' E 023°36'  

Dump ship's entire track history